Time;durP1;ratioP1;P1;durP2;ratioP2;P2;SDS_P1;SDS_P2;PMS_P1;PMS_P2;Temp;Humidity;BMP_temperature;BMP_pressure;BME280_temperature;BME280_humidity;BME280_pressure;Samples;Min_cycle;Max_cycle;Signal;HPM_P1;HPM_P2
2021/03/25 00:01:30;;;;;;;25.02;21.17;;;;;;;10.39;59.94;101155.00;4880754;28;98422;-60
2021/03/25 00:03:56;;;;;;;25.98;21.83;;;;;;;10.36;60.04;101166.28;4863281;28;97870;-60
2021/03/25 00:06:24;;;;;;;24.70;21.05;;;;;;;10.34;59.72;101163.84;4872599;28;113103;-64
2021/03/25 00:08:50;;;;;;;27.38;21.75;;;;;;;10.34;59.66;101160.34;4861880;28;99208;-64
2021/03/25 00:11:16;;;;;;;24.45;20.70;;;;;;;10.31;60.04;101161.63;4861951;28;100116;-60
2021/03/25 00:13:42;;;;;;;23.25;20.75;;;;;;;10.29;60.13;101161.88;4867329;28;98031;-64
2021/03/25 00:16:09;;;;;;;25.73;21.73;;;;;;;10.30;59.73;101160.81;4862869;28;98461;-64
2021/03/25 00:18:35;;;;;;;25.15;21.73;;;;;;;10.26;60.23;101156.19;4881624;28;98023;-63
2021/03/25 00:21:06;;;;;;;25.17;21.63;;;;;;;10.25;60.08;101162.63;4880784;28;98562;-64
2021/03/25 00:23:33;;;;;;;25.60;21.35;;;;;;;10.23;60.10;101160.16;4895186;28;98016;-60
2021/03/25 00:25:59;;;;;;;26.95;21.88;;;;;;;10.19;59.87;101161.72;4880670;28;98259;-64
2021/03/25 00:28:25;;;;;;;25.90;21.38;;;;;;;10.18;59.89;101159.25;4880718;28;103953;-60
2021/03/25 00:30:51;;;;;;;26.70;22.15;;;;;;;10.16;60.14;101162.19;4880373;28;98413;-60
2021/03/25 00:33:18;;;;;;;25.60;21.70;;;;;;;10.15;60.00;101160.56;4880295;28;109287;-60
2021/03/25 00:35:44;;;;;;;26.80;21.92;;;;;;;10.14;59.99;101164.34;4873193;28;98218;-63
2021/03/25 00:38:11;;;;;;;27.70;22.05;;;;;;;10.14;59.67;101150.03;4860785;28;113318;-64
2021/03/25 00:40:37;;;;;;;27.63;22.60;;;;;;;10.08;59.69;101159.94;4860801;28;108570;-64
2021/03/25 00:43:05;;;;;;;27.50;22.38;;;;;;;10.09;60.17;101150.78;4863375;28;97984;-64
2021/03/25 00:45:43;;;;;;;25.77;22.23;;;;;;;10.09;59.77;101145.38;4872178;28;98503;-60
2021/03/25 00:48:09;;;;;;;27.15;22.50;;;;;;;10.03;60.17;101154.47;4859730;28;98826;-60
2021/03/25 00:50:41;;;;;;;25.58;22.00;;;;;;;10.03;60.05;101149.09;4877882;28;98037;-60
2021/03/25 00:53:09;;;;;;;27.40;22.80;;;;;;;10.01;59.71;101143.94;4863643;28;97849;-64
2021/03/25 00:55:35;;;;;;;26.75;23.30;;;;;;;9.98;60.07;101136.38;4878247;28;98593;-64
2021/03/25 00:58:01;;;;;;;28.48;22.70;;;;;;;9.93;59.72;101132.75;4875502;28;98351;-60
2021/03/25 01:00:31;;;;;;;27.67;22.63;;;;;;;9.91;59.96;101135.72;4880275;28;98353;-64
2021/03/25 01:02:57;;;;;;;26.73;22.52;;;;;;;9.89;60.25;101137.00;4881200;28;97741;-64
2021/03/25 01:05:24;;;;;;;28.60;23.17;;;;;;;9.86;60.51;101134.81;4858576;28;121934;-64
2021/03/25 01:07:50;;;;;;;28.67;23.92;;;;;;;9.84;59.93;101127.00;4861567;28;98896;-60
2021/03/25 01:10:28;;;;;;;28.40;23.52;;;;;;;9.81;60.43;101130.16;4860668;28;98819;-64
2021/03/25 01:12:54;;;;;;;27.58;23.35;;;;;;;9.77;59.77;101129.03;4865472;28;97760;-60
2021/03/25 01:15:20;;;;;;;28.13;23.83;;;;;;;9.78;60.36;101130.66;4861439;28;99052;-64
2021/03/25 01:17:51;;;;;;;28.77;24.05;;;;;;;9.69;59.96;101130.25;4868836;28;125423;-60
2021/03/25 01:20:25;;;;;;;30.17;24.33;;;;;;;9.72;60.25;101123.56;4861958;28;98186;-64
2021/03/25 01:22:52;;;;;;;28.95;23.98;;;;;;;9.71;59.70;101132.72;4860949;28;97673;-60
2021/03/25 01:25:18;;;;;;;28.83;24.25;;;;;;;9.67;60.57;101127.00;4860729;28;106510;-64
2021/03/25 01:27:44;;;;;;;31.50;24.80;;;;;;;9.67;59.81;101121.63;4892814;28;98621;-64
2021/03/25 01:30:14;;;;;;;29.10;24.30;;;;;;;9.68;60.49;101117.84;4878442;28;99245;-64
2021/03/25 01:32:40;;;;;;;29.17;24.10;;;;;;;9.69;59.85;101121.38;4875050;28;97655;-60
2021/03/25 01:35:10;;;;;;;29.88;24.45;;;;;;;9.63;60.25;101117.78;4863660;28;98307;-63
2021/03/25 01:37:39;;;;;;;28.02;23.92;;;;;;;9.62;59.81;101116.13;4863895;28;98709;-60
2021/03/25 01:40:14;;;;;;;28.85;24.27;;;;;;;9.62;59.33;101118.00;4863408;28;99785;-63
2021/03/25 01:42:40;;;;;;;30.35;25.05;;;;;;;9.61;59.68;101130.66;4864410;28;98137;-60
2021/03/25 01:45:34;;;;;;;29.20;24.55;;;;;;;9.53;59.81;101123.00;4864535;28;114375;-63
2021/03/25 01:48:01;;;;;;;30.77;24.33;;;;;;;9.57;59.40;101121.44;4881135;28;100349;-60
2021/03/25 01:50:27;;;;;;;28.73;23.75;;;;;;;9.55;60.07;101128.97;4881064;28;128641;-63
2021/03/25 01:53:05;;;;;;;29.42;24.05;;;;;;;9.53;59.96;101123.81;4881697;28;118024;-64
2021/03/25 01:56:00;;;;;;;29.65;24.50;;;;;;;9.54;60.25;101111.97;4863915;28;113924;-60
2021/03/25 01:58:43;;;;;;;29.48;24.48;;;;;;;9.50;60.25;101113.53;4866001;28;98778;-60
2021/03/25 02:01:24;;;;;;;26.83;23.13;;;;;;;9.49;60.31;101113.78;4861761;28;98039;-60
2021/03/25 02:04:20;;;;;;;28.67;23.90;;;;;;;9.47;60.46;101108.66;4861997;28;97760;-64
2021/03/25 02:07:07;;;;;;;27.85;22.63;;;;;;;9.45;60.34;101107.25;4863941;28;98430;-64
2021/03/25 02:09:59;;;;;;;27.70;22.65;;;;;;;9.46;60.20;101104.31;4880256;28;98379;-60
2021/03/25 02:12:32;;;;;;;28.20;22.65;;;;;;;9.41;59.38;101108.81;4867493;28;98429;-64
2021/03/25 02:15:23;;;;;;;26.05;21.98;;;;;;;9.40;59.54;101113.38;4880942;28;97796;-60
2021/03/25 02:18:05;;;;;;;27.98;22.65;;;;;;;9.33;60.21;101110.84;4861695;28;99243;-60
2021/03/25 02:21:32;;;;;;;28.60;23.08;;;;;;;9.32;59.87;101103.81;4861139;28;98430;-64
2021/03/25 02:24:17;;;;;;;24.77;20.83;;;;;;;9.33;60.18;101102.75;4863770;28;98044;-60
2021/03/25 02:27:26;;;;;;;25.77;22.02;;;;;;;9.30;59.67;101108.63;4861856;28;97894;-60
2021/03/25 02:30:23;;;;;;;26.70;21.58;;;;;;;9.28;59.94;101108.06;4876216;28;98416;-60
2021/03/25 02:32:57;;;;;;;27.05;22.05;;;;;;;9.28;59.55;101105.38;4879946;28;98696;-60
2021/03/25 02:35:32;;;;;;;23.95;20.05;;;;;;;9.26;59.93;101103.97;4878989;28;105126;-60
2021/03/25 02:38:08;;;;;;;25.92;21.13;;;;;;;9.20;59.63;101100.41;4879692;28;97877;-63
2021/03/25 02:40:43;;;;;;;24.45;20.17;;;;;;;9.23;59.69;101097.19;4878600;28;118111;-60
2021/03/25 02:43:24;;;;;;;23.50;19.92;;;;;;;9.25;59.86;101103.16;4865142;28;98627;-61
2021/03/25 02:45:57;;;;;;;23.15;20.40;;;;;;;9.21;59.57;101099.31;4864084;28;114713;-64
2021/03/25 02:48:23;;;;;;;24.13;19.25;;;;;;;9.23;59.42;101097.19;4865060;28;97788;-64
2021/03/25 02:51:11;;;;;;;23.55;19.25;;;;;;;9.22;60.46;101100.13;4849941;28;111039;-63
2021/03/25 02:53:40;;;;;;;22.65;18.80;;;;;;;9.21;59.71;101091.25;4845620;28;98881;-60
2021/03/25 02:56:31;;;;;;;22.15;19.00;;;;;;;9.21;60.10;101093.94;4861215;28;101373;-60
2021/03/25 02:59:22;;;;;;;22.10;18.80;;;;;;;9.20;59.58;101094.19;4861773;28;98607;-64
2021/03/25 03:01:51;;;;;;;22.20;18.45;;;;;;;9.19;60.29;101104.13;4861032;28;98672;-64
2021/03/25 03:04:23;;;;;;;22.25;19.65;;;;;;;9.17;59.56;101103.56;4860602;28;113597;-63
2021/03/25 03:07:14;;;;;;;22.77;18.45;;;;;;;9.18;59.77;101099.81;4845128;28;109910;-60
2021/03/25 03:09:44;;;;;;;21.85;18.20;;;;;;;9.16;59.67;101098.44;4861573;28;97951;-63
2021/03/25 03:12:34;;;;;;;22.52;18.55;;;;;;;9.12;59.62;101099.94;4860746;28;99349;-60
2021/03/25 03:15:22;;;;;;;21.42;18.35;;;;;;;9.10;60.02;101105.59;4862276;28;102407;-63
2021/03/25 03:18:00;;;;;;;22.65;19.27;;;;;;;9.09;59.51;101104.78;4860637;28;99912;-63
2021/03/25 03:20:47;;;;;;;23.38;18.92;;;;;;;9.07;59.81;101098.81;4907611;28;98084;-64
2021/03/25 03:23:13;;;;;;;22.80;19.30;;;;;;;9.08;60.19;101111.22;4866974;28;99008;-60
2021/03/25 03:25:39;;;;;;;23.65;19.10;;;;;;;9.09;59.85;101107.47;4871649;28;123907;-64
2021/03/25 03:28:43;;;;;;;23.73;19.45;;;;;;;9.04;59.84;101103.88;4861529;28;127331;-63
2021/03/25 03:31:17;;;;;;;24.50;19.05;;;;;;;9.03;60.00;101100.34;4863166;28;98323;-63
2021/03/25 03:33:49;;;;;;;24.98;19.42;;;;;;;9.03;60.26;101108.41;4860649;28;99844;-60
2021/03/25 03:36:21;;;;;;;23.67;18.97;;;;;;;9.01;60.04;101110.53;4860723;28;112463;-60
2021/03/25 03:39:04;;;;;;;24.23;20.17;;;;;;;8.99;60.46;101107.25;4856874;28;98147;-60
2021/03/25 03:41:55;;;;;;;24.02;19.73;;;;;;;8.96;59.70;101110.47;4860206;28;97851;-60
2021/03/25 03:44:29;;;;;;;24.08;19.67;;;;;;;8.98;59.88;101110.19;4860528;28;98914;-63
2021/03/25 03:46:56;;;;;;;24.38;20.67;;;;;;;8.95;60.13;101106.13;4854081;28;118582;-63
2021/03/25 03:49:43;;;;;;;25.90;20.75;;;;;;;8.97;60.08;101108.59;4839679;28;99616;-60
2021/03/25 03:52:16;;;;;;;25.17;20.08;;;;;;;8.93;59.62;101110.94;4865173;28;97850;-60
2021/03/25 03:54:43;;;;;;;25.25;20.15;;;;;;;8.94;59.47;101109.88;4925016;28;98904;-60
2021/03/25 03:57:33;;;;;;;25.60;20.80;;;;;;;8.95;59.53;101110.69;4925961;28;114117;-60
2021/03/25 04:00:07;;;;;;;25.50;20.45;;;;;;;8.93;60.03;101118.19;4860165;28;98418;-60
2021/03/25 04:02:54;;;;;;;25.25;20.63;;;;;;;8.90;59.95;101114.09;4861414;28;98216;-61
2021/03/25 04:05:27;;;;;;;25.83;21.30;;;;;;;8.90;59.66;101111.41;4846443;28;98111;-60
2021/03/25 04:08:24;;;;;;;27.67;21.77;;;;;;;8.84;59.92;101105.13;4860293;28;98345;-60
2021/03/25 04:11:03;;;;;;;28.35;22.30;;;;;;;8.78;59.76;101106.06;4859589;28;97837;-63
2021/03/25 04:13:52;;;;;;;27.50;22.00;;;;;;;8.83;59.69;101106.16;4862336;28;97928;-60
2021/03/25 04:16:24;;;;;;;27.35;21.42;;;;;;;8.84;59.74;101098.91;4859888;28;98441;-63
2021/03/25 04:19:02;;;;;;;26.25;21.13;;;;;;;8.85;59.72;101098.69;4844428;28;98641;-63
2021/03/25 04:21:39;;;;;;;27.60;22.02;;;;;;;8.94;59.29;101106.38;4851362;28;98477;-63
2021/03/25 04:24:09;;;;;;;27.55;21.30;;;;;;;8.92;59.54;101103.94;4863032;28;97882;-63
2021/03/25 04:26:49;;;;;;;27.00;21.48;;;;;;;9.00;59.41;101097.31;4861969;28;119740;-60
2021/03/25 04:29:29;;;;;;;27.27;21.75;;;;;;;8.97;59.00;101098.63;4864622;28;98593;-60
2021/03/25 04:31:57;;;;;;;27.52;21.77;;;;;;;8.98;58.89;101096.75;4863699;28;97813;-60
2021/03/25 04:34:23;;;;;;;28.67;21.77;;;;;;;9.01;58.77;101101.66;4879296;28;98206;-64
2021/03/25 04:36:49;;;;;;;25.85;21.35;;;;;;;9.00;58.97;101102.69;4878205;28;115786;-60
2021/03/25 04:39:16;;;;;;;26.13;21.27;;;;;;;9.01;58.56;101093.59;4861749;28;128494;-64
2021/03/25 04:41:43;;;;;;;26.85;21.73;;;;;;;9.01;58.86;101102.47;4878058;28;97958;-64
2021/03/25 04:44:38;;;;;;;25.48;21.30;;;;;;;8.99;59.39;101099.19;4862686;28;106631;-60
2021/03/25 04:47:21;;;;;;;26.83;21.88;;;;;;;9.01;58.52;101098.97;4849020;28;99144;-63
2021/03/25 04:50:05;;;;;;;27.10;21.65;;;;;;;8.97;58.78;101101.31;4860302;28;98740;-64
2021/03/25 04:52:33;;;;;;;26.92;21.08;;;;;;;9.00;59.05;101097.31;4860338;28;98638;-60
2021/03/25 04:55:21;;;;;;;27.40;22.33;;;;;;;8.96;59.13;101098.84;4863302;28;97855;-63
2021/03/25 04:57:56;;;;;;;26.80;21.70;;;;;;;8.97;58.36;101100.50;4859242;28;97844;-60
2021/03/25 05:00:34;;;;;;;26.63;21.50;;;;;;;8.96;58.33;101097.00;4923320;28;109703;-60
2021/03/25 05:03:05;;;;;;;27.17;21.77;;;;;;;9.00;58.48;101097.31;4862233;28;97832;-63
2021/03/25 05:05:32;;;;;;;27.20;21.95;;;;;;;9.01;58.65;101097.09;4861066;28;97922;-64
2021/03/25 05:08:09;;;;;;;26.75;21.55;;;;;;;8.97;58.89;101097.81;4862394;28;99159;-60
2021/03/25 05:10:47;;;;;;;26.35;20.92;;;;;;;8.97;58.45;101104.00;4846773;28;105245;-64
2021/03/25 05:13:28;;;;;;;26.45;21.67;;;;;;;9.01;58.73;101104.34;4862159;28;98473;-64
2021/03/25 05:16:20;;;;;;;27.67;21.80;;;;;;;9.04;58.37;101104.69;4863827;28;97809;-60
2021/03/25 05:19:15;;;;;;;26.05;21.23;;;;;;;9.06;58.73;101104.44;4871182;28;98607;-60
2021/03/25 05:22:23;;;;;;;27.25;21.85;;;;;;;9.00;58.81;101103.53;4864551;28;98265;-60
2021/03/25 05:25:23;;;;;;;27.17;21.23;;;;;;;9.12;58.37;101105.31;4846814;28;122207;-64
2021/03/25 05:28:15;;;;;;;27.65;20.90;;;;;;;9.16;58.71;101104.63;4858747;28;106194;-64
2021/03/25 05:30:41;;;;;;;26.60;21.20;;;;;;;9.19;58.30;101109.50;4830722;28;98324;-63
2021/03/25 05:33:13;;;;;;;27.90;21.38;;;;;;;9.15;58.80;101112.91;4830022;28;126349;-60
2021/03/25 05:36:10;;;;;;;25.52;21.42;;;;;;;9.24;58.40;101116.88;4846582;28;98236;-60
2021/03/25 05:38:37;;;;;;;27.25;21.75;;;;;;;9.27;58.29;101111.78;4849767;28;98115;-64
2021/03/25 05:41:38;;;;;;;29.15;20.77;;;;;;;9.30;58.42;101114.00;4845123;28;115176;-60
2021/03/25 05:44:47;;;;;;;26.75;20.27;;;;;;;9.37;58.61;101116.53;4861018;28;115645;-63
2021/03/25 05:47:41;;;;;;;26.23;21.02;;;;;;;9.41;57.98;101119.56;4838340;28;98058;-63
2021/03/25 05:50:18;;;;;;;27.25;20.70;;;;;;;9.46;58.54;101115.06;4861206;28;98455;-64
2021/03/25 05:53:13;;;;;;;27.88;21.40;;;;;;;9.50;58.03;101121.59;4865668;28;98477;-60
2021/03/25 05:55:56;;;;;;;27.75;20.77;;;;;;;9.55;58.73;101127.09;4859668;28;99734;-64
2021/03/25 05:58:45;;;;;;;25.52;20.88;;;;;;;9.61;58.75;101132.53;4859369;28;98396;-64
2021/03/25 06:01:32;;;;;;;25.67;20.92;;;;;;;9.71;58.82;101130.03;4861192;28;98068;-64
2021/03/25 06:04:01;;;;;;;27.67;21.35;;;;;;;9.68;58.61;101139.41;4867812;28;98248;-60
2021/03/25 06:07:10;;;;;;;26.67;21.88;;;;;;;9.81;58.41;101132.84;4860018;28;98457;-63
2021/03/25 06:09:52;;;;;;;24.67;20.98;;;;;;;9.89;58.14;101134.31;4922908;28;97793;-60
2021/03/25 06:12:41;;;;;;;24.75;20.08;;;;;;;9.99;58.65;101139.88;4860369;28;98061;-64
2021/03/25 06:15:16;;;;;;;26.95;21.35;;;;;;;10.05;58.17;101136.19;4843990;28;98701;-60
2021/03/25 06:18:11;;;;;;;28.45;22.08;;;;;;;10.18;57.66;101129.63;4866047;28;98679;-63
2021/03/25 06:21:10;;;;;;;24.52;20.50;;;;;;;10.38;58.33;101129.13;4859134;28;98253;-60
2021/03/25 06:24:30;;;;;;;25.08;20.17;;;;;;;10.44;57.88;101123.53;4858209;28;97913;-63
2021/03/25 06:27:09;;;;;;;23.98;20.00;;;;;;;10.52;57.94;101124.97;4906001;28;99271;-60
2021/03/25 06:29:42;;;;;;;25.35;20.73;;;;;;;10.69;57.21;101128.44;4858987;28;98415;-60
2021/03/25 06:32:23;;;;;;;24.73;20.05;;;;;;;10.74;57.55;101125.78;4904854;28;98324;-64
2021/03/25 06:35:15;;;;;;;25.30;21.00;;;;;;;10.87;57.97;101129.16;4858202;28;103176;-64
2021/03/25 06:38:08;;;;;;;23.60;20.30;;;;;;;11.05;57.87;101123.44;4858021;28;99146;-60
2021/03/25 06:40:40;;;;;;;23.40;20.45;;;;;;;11.17;57.72;101132.19;4844927;28;98236;-64
2021/03/25 06:44:04;;;;;;;20.52;16.00;;;;;;;11.37;57.31;101142.34;4857801;28;98395;-64
2021/03/25 06:46:37;;;;;;;24.08;19.55;;;;;;;11.49;56.81;101140.31;4861666;28;97973;-60
2021/03/25 06:49:26;;;;;;;25.48;20.83;;;;;;;11.65;56.99;101138.53;4858655;28;98351;-60
2021/03/25 06:51:53;;;;;;;26.73;20.98;;;;;;;11.77;57.07;101139.16;4909151;28;98611;-64
2021/03/25 06:54:26;;;;;;;24.08;20.40;;;;;;;11.90;56.71;101140.63;4858091;28;98617;-62
2021/03/25 06:56:56;;;;;;;24.13;20.75;;;;;;;11.97;56.93;101141.22;4861397;28;110421;-64
2021/03/25 06:59:26;;;;;;;25.67;20.58;;;;;;;12.03;56.74;101147.50;4857823;28;99624;-64
2021/03/25 07:02:02;;;;;;;23.48;20.27;;;;;;;12.18;56.80;101144.06;4859207;28;100133;-60
2021/03/25 07:04:35;;;;;;;24.05;20.75;;;;;;;12.32;56.71;101145.22;4828835;28;98404;-61
2021/03/25 07:07:04;;;;;;;23.58;19.52;;;;;;;12.41;56.76;101143.63;4858401;28;98093;-60
2021/03/25 07:09:33;;;;;;;23.02;20.40;;;;;;;12.61;56.71;101147.50;4858252;28;99134;-61
2021/03/25 07:12:03;;;;;;;23.98;20.33;;;;;;;12.68;56.38;101146.19;4859901;28;98204;-60
2021/03/25 07:14:41;;;;;;;24.00;20.38;;;;;;;12.85;56.53;101154.13;4845625;28;98633;-61
2021/03/25 07:17:09;;;;;;;22.45;20.05;;;;;;;12.86;56.59;101149.53;4859495;28;97875;-60
2021/03/25 07:19:36;;;;;;;21.23;18.73;;;;;;;13.07;56.14;101147.66;4858149;28;99116;-64
2021/03/25 07:22:34;;;;;;;22.48;18.67;;;;;;;13.22;55.95;101148.50;4848115;28;98438;-60
2021/03/25 07:25:19;;;;;;;21.13;18.33;;;;;;;13.38;55.97;101151.28;4860148;28;97920;-60
2021/03/25 07:27:45;;;;;;;21.85;18.10;;;;;;;13.55;55.80;101151.00;4859719;28;99260;-64
2021/03/25 07:30:17;;;;;;;21.52;18.30;;;;;;;13.82;55.49;101148.84;4841401;28;124563;-64
2021/03/25 07:32:53;;;;;;;19.50;17.40;;;;;;;13.94;55.62;101156.69;4864651;28;98515;-64
2021/03/25 07:35:27;;;;;;;20.90;18.02;;;;;;;13.72;56.32;101155.09;4857641;28;98191;-60
2021/03/25 07:37:53;;;;;;;21.02;17.80;;;;;;;13.71;56.50;101155.34;4857766;28;97942;-61
2021/03/25 07:40:22;;;;;;;19.92;17.67;;;;;;;13.78;56.58;101157.78;4842474;28;98921;-61
2021/03/25 07:42:48;;;;;;;20.02;17.67;;;;;;;13.88;56.53;101157.78;4866708;28;98667;-61
2021/03/25 07:45:25;;;;;;;18.95;16.48;;;;;;;14.04;56.48;101155.88;4861441;28;98522;-64
2021/03/25 07:47:52;;;;;;;19.58;16.63;;;;;;;14.32;55.77;101155.25;4863313;28;97885;-61
2021/03/25 07:50:30;;;;;;;17.92;16.02;;;;;;;14.52;55.48;101150.88;4857591;28;98398;-64
2021/03/25 07:52:56;;;;;;;20.33;16.38;;;;;;;14.89;54.78;101150.44;4859845;28;98248;-61
2021/03/25 07:55:26;;;;;;;17.63;15.73;;;;;;;15.09;54.08;101152.22;4859295;28;98578;-61
2021/03/25 07:57:53;;;;;;;17.70;15.80;;;;;;;15.39;54.01;101152.03;4857748;28;98418;-60
2021/03/25 08:00:31;;;;;;;17.60;14.55;;;;;;;16.09;52.30;101148.19;4860126;28;98532;-61
2021/03/25 08:03:18;;;;;;;15.70;14.00;;;;;;;16.57;51.57;101140.84;4859279;28;99291;-65
2021/03/25 08:05:46;;;;;;;15.27;13.68;;;;;;;17.00;50.89;101138.13;4858435;28;98675;-61
2021/03/25 08:08:36;;;;;;;15.32;13.73;;;;;;;17.77;49.19;101137.78;4860322;28;98153;-61
2021/03/25 08:11:21;;;;;;;14.35;12.90;;;;;;;18.69;47.45;101146.13;4857633;27;99430;-65
2021/03/25 08:13:58;;;;;;;15.52;13.60;;;;;;;19.26;46.52;101152.00;4864072;28;97838;-61
2021/03/25 08:16:30;;;;;;;13.55;12.00;;;;;;;19.78;46.37;101153.19;4859212;28;98111;-60
2021/03/25 08:19:28;;;;;;;13.00;11.75;;;;;;;20.70;44.97;101152.63;4841942;28;97834;-65
2021/03/25 08:22:28;;;;;;;13.07;11.27;;;;;;;20.91;44.61;101150.09;4857193;28;99046;-61
2021/03/25 08:25:19;;;;;;;12.00;10.75;;;;;;;21.43;44.41;101158.34;4856723;28;117849;-65
2021/03/25 08:27:58;;;;;;;12.07;10.32;;;;;;;22.09;43.75;101163.56;4864247;28;98573;-65
2021/03/25 08:31:01;;;;;;;11.30;10.20;;;;;;;22.40;43.92;101166.84;4862541;28;98002;-61
2021/03/25 08:34:10;;;;;;;11.07;9.55;;;;;;;22.88;43.62;101160.09;4857136;28;98254;-61
2021/03/25 08:37:07;;;;;;;10.73;9.25;;;;;;;23.19;43.30;101167.19;4863345;28;98467;-61
2021/03/25 08:40:01;;;;;;;8.82;7.93;;;;;;;23.22;44.16;101153.56;4856739;28;97885;-65
2021/03/25 08:42:32;;;;;;;8.73;7.85;;;;;;;23.35;43.75;101161.88;4857937;28;98001;-62
2021/03/25 08:45:29;;;;;;;7.63;6.88;;;;;;;23.64;43.78;101152.69;4845300;28;99221;-65
2021/03/25 08:48:19;;;;;;;8.40;7.20;;;;;;;23.93;43.62;101152.59;4860768;28;98726;-65
2021/03/25 08:51:00;;;;;;;7.00;6.30;;;;;;;24.21;43.29;101154.69;4843856;28;98139;-61
2021/03/25 08:53:35;;;;;;;7.25;6.55;;;;;;;24.66;43.16;101151.81;4842134;28;98099;-61
2021/03/25 08:56:16;;;;;;;6.15;5.55;;;;;;;24.95;42.35;101158.19;4863375;28;98634;-65
2021/03/25 08:58:42;;;;;;;5.75;5.25;;;;;;;25.48;41.97;101156.22;4833535;28;98682;-61
2021/03/25 09:01:15;;;;;;;5.68;5.07;;;;;;;25.86;41.33;101150.19;4858574;28;106052;-66
2021/03/25 09:03:49;;;;;;;6.00;5.22;;;;;;;26.22;40.85;101140.03;4856820;28;107039;-61
2021/03/25 09:06:24;;;;;;;5.60;5.10;;;;;;;26.61;40.35;101143.75;4865577;28;98812;-61
2021/03/25 09:08:56;;;;;;;6.07;5.47;;;;;;;26.93;39.80;101141.72;4843405;28;116839;-65
2021/03/25 09:11:22;;;;;;;5.95;5.40;;;;;;;27.30;39.44;101141.28;4843115;28;120270;-66
2021/03/25 09:13:59;;;;;;;4.97;4.50;;;;;;;27.48;39.25;101143.63;4860175;28;115537;-66
2021/03/25 09:16:31;;;;;;;4.90;4.47;;;;;;;27.65;38.75;101146.72;4858855;28;98130;-65
2021/03/25 09:18:58;;;;;;;5.13;4.63;;;;;;;28.01;38.29;101146.59;4843589;28;99334;-66
2021/03/25 09:21:27;;;;;;;4.65;4.15;;;;;;;28.34;37.64;101141.22;4843437;28;98927;-66
2021/03/25 09:23:59;;;;;;;5.00;4.50;;;;;;;28.72;37.48;101147.72;4858849;28;97966;-66
2021/03/25 09:26:25;;;;;;;5.13;4.63;;;;;;;28.86;37.40;101141.59;4861198;28;98516;-61
2021/03/25 09:29:00;;;;;;;4.65;4.20;;;;;;;29.01;37.00;101142.59;4860810;28;98299;-66
2021/03/25 09:31:31;;;;;;;5.18;4.18;;;;;;;29.20;36.50;101138.84;4861232;28;98216;-61
2021/03/25 09:34:10;;;;;;;4.82;4.40;;;;;;;29.49;36.08;101134.44;4859536;28;97911;-62
2021/03/25 09:36:36;;;;;;;4.32;3.92;;;;;;;29.99;34.99;101130.19;4866883;28;98690;-66
2021/03/25 09:39:03;;;;;;;5.03;3.92;;;;;;;30.37;34.73;101127.31;4861169;28;98153;-66
2021/03/25 09:41:29;;;;;;;4.43;3.90;;;;;;;30.76;34.30;101122.03;4860571;28;98136;-66
2021/03/25 09:44:10;;;;;;;3.90;3.60;;;;;;;31.14;33.79;101119.81;4861088;28;97813;-62
2021/03/25 09:47:01;;;;;;;4.43;3.60;;;;;;;31.54;33.29;101118.75;4860447;28;99599;-64
2021/03/25 09:49:31;;;;;;;3.92;3.58;;;;;;;31.80;32.67;101119.59;4871857;28;98368;-62
2021/03/25 09:52:07;;;;;;;4.00;3.70;;;;;;;32.03;33.02;101106.09;4865647;28;97994;-65
2021/03/25 09:54:34;;;;;;;3.95;3.58;;;;;;;32.14;32.27;101112.41;4859646;28;98407;-61
2021/03/25 09:57:34;;;;;;;4.07;3.58;;;;;;;32.63;31.74;101109.97;4843235;28;98190;-66
2021/03/25 10:00:24;;;;;;;3.60;3.30;;;;;;;32.65;31.83;101108.38;4860625;28;98844;-62
2021/03/25 10:03:01;;;;;;;4.30;3.40;;;;;;;33.01;31.25;101119.41;4860550;28;97812;-62
2021/03/25 10:05:30;;;;;;;3.80;3.45;;;;;;;33.12;30.73;101103.41;4860108;28;98251;-66
2021/03/25 10:08:28;;;;;;;3.53;3.22;;;;;;;33.23;30.58;101106.16;4864977;28;98998;-66
2021/03/25 10:11:01;;;;;;;3.90;3.05;;;;;;;33.53;30.66;101102.81;4864984;28;98259;-66
2021/03/25 10:13:33;;;;;;;3.88;3.40;;;;;;;33.79;30.31;101106.19;4857055;28;110978;-66
2021/03/25 10:16:06;;;;;;;4.07;3.35;;;;;;;33.92;29.62;101102.50;4861392;28;98248;-60
2021/03/25 10:18:32;;;;;;;5.10;3.50;;;;;;;34.21;29.61;101102.28;4861932;28;98293;-60
2021/03/25 10:21:12;;;;;;;3.72;3.30;;;;;;;34.54;28.60;101088.75;4860622;28;98585;-64
2021/03/25 10:23:50;;;;;;;3.67;3.30;;;;;;;35.05;27.84;101092.56;4860741;28;98535;-64
2021/03/25 10:26:40;;;;;;;4.28;3.35;;;;;;;35.92;27.04;101087.22;4860568;28;98147;-64
2021/03/25 10:29:10;;;;;;;3.53;3.22;;;;;;;36.27;26.54;101091.44;4858624;28;99450;-60
2021/03/25 10:31:46;;;;;;;3.78;3.25;;;;;;;36.70;25.87;101090.63;4858321;28;98397;-64
2021/03/25 10:34:25;;;;;;;3.65;3.30;;;;;;;37.20;25.34;101079.13;4860368;28;98131;-64
2021/03/25 10:37:03;;;;;;;3.38;3.03;;;;;;;37.37;24.84;101085.53;4858973;28;98164;-60
2021/03/25 10:39:38;;;;;;;4.43;3.10;;;;;;;36.99;25.32;101076.81;4843502;28;106151;-64
2021/03/25 10:42:25;;;;;;;3.90;3.15;;;;;;;36.77;25.40;101071.63;4857796;28;98820;-60
2021/03/25 10:44:52;;;;;;;3.65;3.20;;;;;;;36.61;25.95;101063.94;4860279;28;98625;-64
2021/03/25 10:47:25;;;;;;;3.75;3.30;;;;;;;36.45;25.86;101069.44;4861009;28;98072;-60
2021/03/25 10:49:54;;;;;;;3.90;3.42;;;;;;;35.86;26.51;101059.69;4843363;28;99361;-64
2021/03/25 10:52:38;;;;;;;3.60;3.28;;;;;;;35.80;26.44;101063.41;4860069;28;98943;-60
2021/03/25 10:55:47;;;;;;;3.40;3.10;;;;;;;35.37;26.95;101059.28;4858124;28;98223;-64
2021/03/25 10:58:25;;;;;;;4.38;3.33;;;;;;;35.17;27.33;101050.78;4856542;28;98090;-60
2021/03/25 11:01:02;;;;;;;3.67;3.38;;;;;;;35.03;27.53;101053.00;4858056;28;98455;-60
2021/03/25 11:03:31;;;;;;;3.47;3.15;;;;;;;34.25;28.29;101049.09;4859826;28;98581;-64
2021/03/25 11:05:59;;;;;;;3.92;3.53;;;;;;;34.09;28.91;101042.06;4859588;28;98657;-60
2021/03/25 11:08:32;;;;;;;3.72;3.30;;;;;;;33.95;28.88;101047.75;4858252;28;98241;-64
2021/03/25 11:11:00;;;;;;;4.10;3.70;;;;;;;34.45;28.40;101041.66;4859820;28;98111;-60
2021/03/25 11:13:26;;;;;;;4.13;3.22;;;;;;;34.67;28.21;101043.03;4841691;28;98560;-60
2021/03/25 11:16:05;;;;;;;3.50;3.20;;;;;;;35.03;27.66;101048.19;4841041;28;120896;-64
2021/03/25 11:18:38;;;;;;;3.83;3.28;;;;;;;35.37;26.66;101045.28;4858215;28;98067;-64
2021/03/25 11:21:05;;;;;;;3.42;3.13;;;;;;;35.44;26.91;101041.56;4842257;28;98765;-60
2021/03/25 11:23:31;;;;;;;3.70;3.33;;;;;;;35.65;26.69;101038.44;4857593;28;99154;-60
2021/03/25 11:26:00;;;;;;;3.28;2.97;;;;;;;35.46;27.25;101039.13;4859530;28;98454;-60
2021/03/25 11:28:29;;;;;;;3.25;2.97;;;;;;;35.21;26.84;101031.09;4860940;28;98780;-64
2021/03/25 11:31:19;;;;;;;3.30;3.00;;;;;;;35.37;27.57;101030.44;4860734;28;98341;-64
2021/03/25 11:33:45;;;;;;;3.23;2.93;;;;;;;35.56;26.94;101031.78;4852803;28;98994;-60
2021/03/25 11:36:12;;;;;;;3.10;2.80;;;;;;;35.63;26.87;101026.84;4858950;28;98484;-64
2021/03/25 11:38:44;;;;;;;3.90;2.95;;;;;;;35.59;27.11;101019.72;4864426;28;97900;-64
2021/03/25 11:41:20;;;;;;;3.03;2.67;;;;;;;35.50;27.23;101013.88;4858646;28;118774;-60
2021/03/25 11:43:54;;;;;;;3.58;2.67;;;;;;;35.35;27.43;101019.69;4862274;28;99249;-65
2021/03/25 11:46:45;;;;;;;3.58;2.83;;;;;;;35.59;27.27;101012.09;4863333;28;98126;-65
2021/03/25 11:49:16;;;;;;;3.40;2.80;;;;;;;35.15;27.15;101013.22;4860149;28;97843;-64
2021/03/25 11:51:45;;;;;;;3.58;3.17;;;;;;;34.92;27.70;101014.69;4858435;28;104998;-60
2021/03/25 11:54:31;;;;;;;3.22;2.92;;;;;;;34.81;28.02;101014.06;4864325;28;98598;-60
2021/03/25 11:57:03;;;;;;;3.13;2.83;;;;;;;34.73;28.30;101006.19;4843085;28;98470;-64
2021/03/25 11:59:31;;;;;;;3.45;2.97;;;;;;;34.79;28.08;101010.91;4856921;28;98055;-60
2021/03/25 12:02:22;;;;;;;3.38;3.00;;;;;;;35.03;27.94;100992.19;4859871;28;103832;-60
2021/03/25 12:04:49;;;;;;;3.13;2.80;;;;;;;34.84;27.58;100993.63;4861546;28;99266;-64